createdAt,value
2023-03-17T00:01:50.702Z,167.33
2023-03-17T00:02:50.751Z,164.34
2023-03-17T00:03:50.863Z,163.94
2023-03-17T00:04:50.858Z,161.41
2023-03-17T00:05:50.849Z,161.56
2023-03-17T00:06:50.978Z,164.28
2023-03-17T00:07:50.948Z,163.42
2023-03-17T00:08:50.980Z,165.78
2023-03-17T00:09:51.032Z,162.01
2023-03-17T00:10:51.093Z,163.93
2023-03-17T00:11:51.140Z,164.76
2023-03-17T00:12:51.261Z,164.09
2023-03-17T00:13:51.216Z,164.58
2023-03-17T00:14:51.271Z,164.21
2023-03-17T00:15:51.334Z,161.84
2023-03-17T00:16:51.359Z,163.65
2023-03-17T00:17:51.415Z,163.70
2023-03-17T00:18:51.472Z,165.61
2023-03-17T00:19:51.502Z,165.56
2023-03-17T00:20:51.545Z,166.42
2023-03-17T00:21:51.588Z,165.76
2023-03-17T00:22:51.654Z,165.61
2023-03-17T00:23:51.678Z,165.63
2023-03-17T00:24:51.747Z,164.46
2023-03-17T00:25:51.780Z,166.59
2023-03-17T00:26:51.817Z,167.25
2023-03-17T00:27:51.874Z,168.01
2023-03-17T00:28:51.907Z,167.20
2023-03-17T00:29:51.929Z,167.34
2023-03-17T00:30:51.996Z,166.79
2023-03-17T00:31:52.010Z,168.11
2023-03-17T00:32:52.110Z,168.15
2023-03-17T00:33:52.092Z,169.93
2023-03-17T00:34:52.128Z,169.85
2023-03-17T00:35:52.228Z,167.91
2023-03-17T00:36:52.283Z,166.68
2023-03-17T00:37:52.277Z,168.35
2023-03-17T00:38:52.376Z,169.26
2023-03-17T00:39:52.358Z,168.04
2023-03-17T00:40:52.404Z,167.14
2023-03-17T00:41:52.465Z,165.40
2023-03-17T00:42:52.607Z,166.46
2023-03-17T00:43:52.587Z,165.36
2023-03-17T00:44:52.632Z,164.31
2023-03-17T00:45:52.668Z,164.46
2023-03-17T00:46:52.758Z,167.00
2023-03-17T00:47:52.779Z,165.14
2023-03-17T00:48:52.808Z,164.15
2023-03-17T00:49:52.860Z,165.78
2023-03-17T00:50:52.892Z,163.37
2023-03-17T00:51:52.979Z,163.93
2023-03-17T00:52:53.004Z,165.88
2023-03-17T00:53:53.062Z,166.11
2023-03-17T00:54:53.104Z,164.84
2023-03-17T00:55:53.170Z,165.31
2023-03-17T00:56:53.225Z,167.08
2023-03-17T00:57:53.276Z,166.18
2023-03-17T00:58:53.332Z,167.03
2023-03-17T00:59:53.372Z,169.04
2023-03-17T01:00:53.528Z,168.08
2023-03-17T01:01:53.584Z,168.74
2023-03-17T01:02:53.537Z,167.69
2023-03-17T01:03:53.569Z,165.54
2023-03-17T01:05:05.445Z,166.28
2023-03-17T01:05:54.606Z,166.35
2023-03-17T01:06:53.595Z,166.33
2023-03-17T01:07:53.604Z,166.77
2023-03-17T01:08:53.596Z,167.30
2023-03-17T01:09:53.588Z,169.55
2023-03-17T01:10:53.578Z,166.65
2023-03-17T01:11:53.572Z,167.20
2023-03-17T01:12:53.625Z,165.10
2023-03-17T01:13:53.553Z,163.47
2023-03-17T01:14:53.603Z,167.36
2023-03-17T01:15:53.748Z,166.78
2023-03-17T01:16:53.680Z,166.69
2023-03-17T01:17:53.722Z,166.23
2023-03-17T01:18:53.809Z,167.11
2023-03-17T01:19:53.801Z,166.73
2023-03-17T01:20:53.854Z,169.09
2023-03-17T01:21:53.897Z,168.83
2023-03-17T01:22:53.938Z,168.05
2023-03-17T01:23:53.992Z,165.84
2023-03-17T01:24:54.036Z,167.87
2023-03-17T01:25:54.087Z,168.20
2023-03-17T01:26:54.134Z,168.23
2023-03-17T01:27:54.201Z,165.79
2023-03-17T01:28:54.231Z,163.40
2023-03-17T01:29:54.287Z,165.70
2023-03-17T01:30:54.321Z,165.23
2023-03-17T01:31:54.423Z,167.02
2023-03-17T01:32:54.522Z,167.48
2023-03-17T01:33:54.476Z,166.26
2023-03-17T01:34:54.504Z,165.75
2023-03-17T01:35:54.666Z,168.79
2023-03-17T01:36:54.602Z,166.46
2023-03-17T01:37:54.643Z,168.48
2023-03-17T01:38:54.691Z,168.06
2023-03-17T01:39:54.745Z,166.41
2023-03-17T01:40:54.818Z,166.80
2023-03-17T01:41:54.833Z,166.13
2023-03-17T01:42:54.889Z,163.72
2023-03-17T01:43:54.942Z,162.63
2023-03-17T01:44:54.995Z,164.11
2023-03-17T01:45:55.144Z,166.32
2023-03-17T01:46:55.105Z,166.33
2023-03-17T01:47:55.160Z,164.83
2023-03-17T01:49:55.260Z,162.12
2023-03-17T01:50:55.314Z,159.23
2023-03-17T01:51:55.380Z,164.28
2023-03-17T01:52:55.420Z,165.14
2023-03-17T01:53:55.523Z,164.68
2023-03-17T01:54:55.508Z,164.82
2023-03-17T02:47:58.776Z,163.13
2023-03-17T02:48:58.010Z,163.98
2023-03-17T02:49:58.049Z,163.28
2023-03-17T02:50:58.091Z,165.05
2023-03-17T02:51:58.144Z,162.99
2023-03-17T02:52:58.195Z,161.27
2023-03-17T02:53:58.324Z,160.38
2023-03-17T02:54:58.289Z,162.49
2023-03-17T02:55:58.323Z,160.54
2023-03-17T02:56:58.377Z,158.81
2023-03-17T02:57:58.431Z,160.71
2023-03-17T02:58:58.465Z,161.81
2023-03-17T02:59:58.519Z,160.41
2023-03-17T03:00:58.563Z,162.02
2023-03-17T03:01:58.593Z,160.19
2023-03-17T03:02:58.661Z,161.15
2023-03-17T03:07:58.870Z,161.39
2023-03-17T03:08:58.914Z,162.05
2023-03-17T03:09:58.964Z,159.91
2023-03-17T03:10:59.004Z,159.69
2023-03-17T03:11:59.051Z,162.08
2023-03-17T03:12:59.105Z,162.51
2023-03-17T03:13:59.229Z,162.58
2023-03-17T03:14:59.212Z,163.00
2023-03-17T03:15:59.312Z,160.68
2023-03-17T03:16:59.319Z,161.91
2023-03-17T03:17:59.342Z,160.00
2023-03-17T03:18:59.391Z,156.74
2023-03-17T03:19:59.442Z,157.04
2023-03-17T03:20:59.485Z,158.25
2023-03-17T03:21:59.542Z,158.01
2023-03-17T03:22:59.595Z,159.22
2023-03-17T03:23:59.706Z,160.02
2023-03-17T03:24:59.675Z,158.58
2023-03-17T03:25:59.732Z,158.87
2023-03-17T03:26:59.759Z,158.17
2023-03-17T03:27:59.805Z,158.65
2023-03-17T03:28:59.853Z,160.15
2023-03-17T03:29:59.902Z,156.56
2023-03-17T03:30:59.996Z,158.99
2023-03-17T03:32:00.005Z,157.41
2023-03-17T03:33:00.141Z,160.27
2023-03-17T03:34:00.784Z,159.78
2023-03-17T03:35:00.142Z,159.06
2023-03-17T03:36:00.195Z,158.68
2023-03-17T03:37:00.211Z,158.94
2023-03-17T03:38:00.254Z,160.06
2023-03-17T03:39:00.302Z,160.45
2023-03-17T03:40:00.355Z,159.02
2023-03-17T03:41:00.420Z,161.56
2023-03-17T03:42:00.459Z,160.18
2023-03-17T03:43:02.453Z,161.42
2023-03-17T03:44:01.511Z,161.42
2023-03-17T03:45:00.489Z,161.64
2023-03-17T03:46:00.553Z,160.08
2023-03-17T03:47:00.480Z,161.68
2023-03-17T03:48:00.472Z,162.17
2023-03-17T03:49:00.469Z,159.55
2023-03-17T03:50:00.467Z,156.92
2023-03-17T03:51:00.473Z,156.22
2023-03-17T03:52:00.441Z,156.89
2023-03-17T03:53:00.429Z,157.14
2023-03-17T03:54:00.480Z,159.23
2023-03-17T03:55:00.516Z,155.76
2023-03-17T03:56:00.564Z,154.29
2023-03-17T03:57:00.620Z,154.86
2023-03-17T03:58:00.740Z,156.00
2023-03-17T03:59:00.705Z,155.21
2023-03-17T04:00:01.130Z,157.69
2023-03-17T04:01:00.793Z,155.85
2023-03-17T04:02:00.822Z,155.72
2023-03-17T04:03:00.955Z,157.72
2023-03-17T04:04:00.917Z,157.50
2023-03-17T04:05:00.963Z,157.06
2023-03-17T04:06:00.995Z,151.61
2023-03-17T04:07:01.020Z,151.60
2023-03-17T04:08:01.055Z,153.23
2023-03-17T04:09:01.109Z,152.69
2023-03-17T04:10:01.163Z,156.09
2023-03-17T04:11:01.179Z,155.64
2023-03-17T04:12:01.202Z,156.16
2023-03-17T04:13:01.228Z,153.60
2023-03-17T04:14:01.251Z,154.70
2023-03-17T04:15:01.281Z,156.44
2023-03-17T04:16:01.389Z,158.82
2023-03-17T04:17:01.318Z,156.64
2023-03-17T04:18:01.335Z,158.98
2023-03-17T04:19:01.378Z,157.81
2023-03-17T04:20:01.398Z,158.54
2023-03-17T04:21:01.427Z,157.67
2023-03-17T04:22:01.427Z,158.62
2023-03-17T04:23:01.452Z,159.21
2023-03-17T04:24:01.475Z,158.41
2023-03-17T04:25:01.506Z,158.17
2023-03-17T04:26:01.562Z,158.38
2023-03-17T04:27:01.631Z,160.15
2023-03-17T04:28:01.649Z,160.05
2023-03-17T04:29:01.624Z,159.08
2023-03-17T04:30:01.690Z,161.07
2023-03-17T04:31:01.653Z,162.50
2023-03-17T04:32:01.674Z,160.69
2023-03-17T04:33:01.746Z,159.54
2023-03-17T04:34:01.737Z,158.61
2023-03-17T04:35:01.754Z,156.63
2023-03-17T04:36:01.820Z,155.32
2023-03-17T04:37:01.792Z,152.75
2023-03-17T04:38:01.833Z,153.61
2023-03-17T04:39:01.847Z,152.01
2023-03-17T04:40:01.868Z,154.84
2023-03-17T04:41:01.882Z,153.94
2023-03-17T04:42:01.921Z,157.03
2023-03-17T04:43:03.542Z,155.36
2023-03-17T04:44:01.949Z,155.21
2023-03-17T04:45:01.978Z,156.05
2023-03-17T04:46:02.135Z,157.35
2023-03-17T04:47:02.016Z,158.57
2023-03-17T04:48:02.080Z,158.72
2023-03-17T04:49:02.060Z,157.29
2023-03-17T04:50:02.069Z,156.03
2023-03-17T04:51:02.069Z,156.16
2023-03-17T04:52:02.085Z,156.29
2023-03-17T04:53:02.102Z,157.59
2023-03-17T04:54:02.137Z,157.34
2023-03-17T04:55:02.152Z,160.03
2023-03-17T04:56:02.168Z,159.17
2023-03-17T04:57:02.182Z,159.74
2023-03-17T04:58:02.189Z,159.75
2023-03-17T04:59:02.246Z,160.97
2023-03-17T05:00:02.308Z,162.23
2023-03-17T05:01:02.302Z,161.75
2023-03-17T05:02:02.318Z,160.93
2023-03-17T05:03:02.364Z,160.80
2023-03-17T05:04:02.418Z,161.64
2023-03-17T05:05:02.401Z,162.60
2023-03-17T05:06:02.812Z,160.84
2023-03-17T05:07:02.439Z,158.91
2023-03-17T05:08:02.442Z,161.23
2023-03-17T05:09:02.450Z,158.77
2023-03-17T05:10:02.461Z,158.40
2023-03-17T05:11:02.580Z,158.80
2023-03-17T05:12:02.503Z,158.82
2023-03-17T05:13:02.514Z,159.19
2023-03-17T05:14:02.535Z,158.84
2023-03-17T05:15:02.528Z,157.86
2023-03-17T05:16:02.528Z,157.98
2023-03-17T05:17:02.615Z,158.48
2023-03-17T05:18:04.898Z,158.64
2023-03-17T05:19:02.596Z,158.43
2023-03-17T05:20:02.577Z,156.25
2023-03-17T05:21:02.581Z,155.25
2023-03-17T05:22:02.660Z,151.72
2023-03-17T05:23:02.616Z,149.97
2023-03-17T05:24:02.620Z,150.52
2023-03-17T05:25:02.633Z,150.86
2023-03-17T05:26:02.871Z,150.21
2023-03-17T05:27:02.633Z,151.76
2023-03-17T05:28:02.691Z,153.82
2023-03-17T05:29:02.696Z,154.90
2023-03-17T05:30:02.642Z,154.23
2023-03-17T05:31:02.703Z,155.17
2023-03-17T05:32:02.670Z,156.17
2023-03-17T05:33:02.729Z,154.84
2023-03-17T05:34:02.655Z,157.94
2023-03-17T05:35:02.660Z,157.32
2023-03-17T05:36:02.682Z,156.13
2023-03-17T05:37:02.684Z,154.65
2023-03-17T05:38:02.677Z,154.06
2023-03-17T05:39:02.690Z,154.40
2023-03-17T05:40:02.705Z,153.79
2023-03-17T05:41:02.701Z,152.41
2023-03-17T05:42:02.704Z,152.85
2023-03-17T05:43:02.714Z,153.43
2023-03-17T05:44:02.763Z,154.12
2023-03-17T05:45:02.772Z,156.09
2023-03-17T05:46:02.865Z,155.68
2023-03-17T05:47:02.889Z,157.10
2023-03-17T05:48:02.805Z,155.47
2023-03-17T05:49:02.826Z,157.12
2023-03-17T05:50:02.868Z,154.90
2023-03-17T05:51:02.854Z,153.17
2023-03-17T05:52:02.873Z,154.45
2023-03-17T05:53:02.875Z,153.36
2023-03-17T05:54:02.926Z,156.01
2023-03-17T05:55:02.894Z,154.51
2023-03-17T05:56:02.923Z,155.88
2023-03-17T05:57:02.908Z,154.88
2023-03-17T05:58:02.935Z,155.98
2023-03-17T05:59:02.944Z,158.54
2023-03-17T06:00:03.048Z,156.56
2023-03-17T06:01:03.051Z,156.32
2023-03-17T06:02:03.141Z,157.29
2023-03-17T06:03:03.082Z,158.04
2023-03-17T06:04:03.103Z,157.59
2023-03-17T06:05:03.128Z,158.69
2023-03-17T06:06:03.150Z,157.85
2023-03-17T06:07:03.184Z,157.39
2023-03-17T06:08:03.203Z,156.70
2023-03-17T06:09:03.222Z,157.55
2023-03-17T06:10:03.254Z,157.15
2023-03-17T06:11:03.249Z,155.98
2023-03-17T06:12:03.339Z,153.58
2023-03-17T06:13:04.121Z,152.21
2023-03-17T06:14:03.304Z,152.02
2023-03-17T06:15:03.297Z,153.64
2023-03-17T06:16:03.334Z,153.65
2023-03-17T06:17:03.313Z,155.24
2023-03-17T06:18:03.321Z,155.71
2023-03-17T06:19:03.332Z,155.08
2023-03-17T06:20:03.343Z,155.45
2023-03-17T06:21:03.352Z,155.11
2023-03-17T06:22:03.356Z,154.39
2023-03-17T06:23:05.610Z,154.99
2023-03-17T06:24:03.630Z,154.07
2023-03-17T06:25:03.632Z,153.41
2023-03-17T06:26:03.639Z,154.41
2023-03-17T06:27:03.661Z,154.52
2023-03-17T06:28:04.074Z,154.96
2023-03-17T06:29:03.655Z,154.68
2023-03-17T06:30:03.678Z,157.42
2023-03-17T06:31:06.036Z,156.56
2023-03-17T06:32:18.958Z,143.48
2023-03-17T06:33:04.820Z,143.71
2023-03-17T06:34:04.671Z,143.72
2023-03-17T06:35:03.644Z,144.56
2023-03-17T06:36:03.668Z,145.10
2023-03-17T06:37:03.633Z,147.36
2023-03-17T06:38:04.340Z,148.77
2023-03-17T06:39:04.868Z,143.63
2023-03-17T06:40:04.840Z,144.69
2023-03-17T06:41:03.997Z,145.52
2023-03-17T06:42:06.261Z,150.21
2023-03-17T06:43:04.173Z,157.54
2023-03-17T06:44:04.150Z,162.60
2023-03-17T06:45:04.206Z,166.47
2023-03-17T06:46:04.329Z,167.65
2023-03-17T06:47:04.308Z,171.47
2023-03-17T06:48:04.378Z,174.30
2023-03-17T06:49:04.426Z,178.00
2023-03-17T06:50:04.481Z,183.55
2023-03-17T06:51:04.544Z,188.24
2023-03-17T06:52:04.585Z,192.73
2023-03-17T06:53:04.638Z,197.90
2023-03-17T06:54:05.353Z,200.72
2023-03-17T06:55:04.706Z,204.74
2023-03-17T06:56:04.731Z,209.11
2023-03-17T06:57:05.074Z,213.13
2023-03-17T06:58:05.778Z,213.39
2023-03-17T06:59:04.757Z,214.81
2023-03-17T07:00:04.816Z,218.46
2023-03-17T07:01:04.776Z,224.22
2023-03-17T07:02:04.816Z,234.31
2023-03-17T07:03:04.750Z,237.28
2023-03-17T07:04:04.739Z,240.79
2023-03-17T07:05:04.736Z,243.57
2023-03-17T07:06:04.734Z,245.68
2023-03-17T07:07:04.751Z,247.53
2023-03-17T07:08:05.351Z,250.00
2023-03-17T07:09:04.782Z,250.00
2023-03-17T07:10:04.885Z,250.00
2023-03-17T07:11:04.863Z,249.90
2023-03-17T07:12:04.876Z,249.63
2023-03-17T07:13:04.876Z,249.62
2023-03-17T07:14:04.893Z,258.93
2023-03-17T07:15:04.903Z,250.00
2023-03-17T07:16:04.947Z,249.83
2023-03-17T07:17:04.927Z,250.00
2023-03-17T07:18:04.907Z,250.00
2023-03-17T07:19:04.938Z,249.80
2023-03-17T07:20:04.933Z,249.98
2023-03-17T07:21:05.123Z,248.79
2023-03-17T07:22:05.895Z,249.01
2023-03-17T07:23:04.938Z,247.24
2023-03-17T07:24:04.959Z,246.95
2023-03-17T07:25:05.042Z,245.83
2023-03-17T07:26:05.051Z,246.01
2023-03-17T07:27:05.795Z,243.65
2023-03-17T07:28:05.093Z,241.99
2023-03-17T07:29:05.183Z,240.18
2023-03-17T07:30:05.238Z,234.98
2023-03-17T07:31:05.893Z,233.20
2023-03-17T07:32:05.250Z,230.24
2023-03-17T07:33:05.979Z,228.79
2023-03-17T07:34:05.362Z,225.18
2023-03-17T07:35:05.523Z,223.19
2023-03-17T07:36:05.496Z,220.67
2023-03-17T07:37:05.574Z,214.55
2023-03-17T07:38:05.602Z,211.45
2023-03-17T07:39:05.650Z,211.31
2023-03-17T07:40:05.696Z,210.14
2023-03-17T07:41:05.746Z,209.40
2023-03-17T07:42:05.795Z,208.77
2023-03-17T07:43:05.845Z,208.75
2023-03-17T07:44:05.903Z,206.70
2023-03-17T07:45:05.973Z,205.91
2023-03-17T07:46:06.597Z,202.13
2023-03-17T07:47:06.011Z,197.67
2023-03-17T07:48:06.015Z,199.58
2023-03-17T07:49:06.157Z,196.01
2023-03-17T07:50:06.084Z,197.11
2023-03-17T07:52:06.127Z,193.51
2023-03-17T07:54:06.172Z,192.60
2023-03-17T07:55:06.234Z,187.46
2023-03-17T09:13:08.027Z,194.52
2023-03-17T09:14:08.066Z,176.63
2023-03-17T09:15:08.080Z,170.12
2023-03-17T09:16:08.250Z,160.51
2023-03-17T09:17:08.077Z,125.56
2023-03-17T09:18:09.073Z,116.03
2023-03-17T09:19:08.067Z,92.39
2023-03-17T09:20:08.056Z,84.95
2023-03-17T09:21:08.053Z,79.96
2023-03-17T09:22:08.050Z,84.60
2023-03-17T09:23:08.110Z,65.13
2023-03-17T09:24:08.037Z,58.21
2023-03-17T09:25:08.036Z,59.94
2023-03-17T09:26:09.030Z,75.73
2023-03-17T09:27:08.012Z,9.99
2023-03-17T09:28:08.015Z,0.00
2023-03-17T09:29:08.007Z,0.00
2023-03-17T09:30:07.999Z,0.00
2023-03-17T09:31:08.127Z,0.00
2023-03-17T09:32:07.989Z,0.00
2023-03-17T09:33:08.055Z,0.00
2023-03-17T09:34:08.046Z,10.50
2023-03-17T09:35:08.030Z,25.00
2023-03-17T09:36:08.206Z,27.15
2023-03-17T09:37:08.158Z,44.27
2023-03-17T09:38:08.204Z,53.57
2023-03-17T09:39:08.284Z,46.80
2023-03-17T09:40:08.393Z,52.51
2023-03-17T09:41:08.373Z,60.06
2023-03-17T09:42:08.414Z,68.49
2023-03-17T09:43:08.438Z,82.78
2023-03-17T09:44:08.494Z,91.89
2023-03-17T09:45:08.515Z,101.83
2023-03-17T09:47:08.552Z,118.35
2023-03-17T10:02:08.990Z,186.56
2023-03-17T10:09:09.325Z,212.29
2023-03-17T10:27:10.042Z,76.61
2023-03-17T10:28:10.054Z,66.93
2023-03-17T10:29:10.057Z,81.98
2023-03-17T10:30:10.084Z,54.95
2023-03-17T10:31:10.158Z,26.96
2023-03-17T10:32:10.097Z,7.84
2023-03-17T10:33:10.173Z,8.95
2023-03-17T10:34:10.142Z,13.26
2023-03-17T10:35:10.190Z,13.98
2023-03-17T10:36:10.282Z,16.44
2023-03-17T10:37:10.270Z,17.87
2023-03-17T10:38:14.412Z,22.27
2023-03-17T10:39:10.293Z,22.03
2023-03-17T10:40:10.298Z,18.03
2023-03-17T10:41:10.374Z,16.53
2023-03-17T10:42:10.291Z,5.44
2023-03-17T10:44:10.259Z,0.00
2023-03-17T10:45:10.263Z,4.15
2023-03-17T10:46:10.250Z,13.49
2023-03-17T10:47:10.327Z,8.04
2023-03-17T10:48:10.245Z,33.00
2023-03-17T10:49:10.225Z,52.03
2023-03-17T10:50:10.224Z,70.75
2023-03-17T10:51:10.236Z,81.40
2023-03-17T10:52:10.208Z,91.79
2023-03-17T10:53:10.205Z,99.50
2023-03-17T10:54:10.194Z,108.57
2023-03-17T10:55:10.309Z,114.41
2023-03-17T10:56:10.180Z,121.11
2023-03-17T10:57:10.180Z,126.24
2023-03-17T10:58:10.176Z,130.28
2023-03-17T10:59:10.203Z,135.78
2023-03-17T11:00:10.164Z,139.92
2023-03-17T11:01:10.290Z,146.15
2023-03-17T11:02:10.149Z,149.41
2023-03-17T11:03:10.145Z,156.53
2023-03-17T11:04:10.196Z,160.91
2023-03-17T11:05:10.231Z,167.12
2023-03-17T11:06:10.273Z,171.02
2023-03-17T11:07:10.381Z,174.34
2023-03-17T11:08:10.387Z,178.39
2023-03-17T11:09:10.406Z,181.01
2023-03-17T11:10:10.450Z,185.14
2023-03-17T11:11:10.477Z,189.36
2023-03-17T11:12:10.535Z,192.71
2023-03-17T11:14:10.520Z,200.09
2023-03-17T11:15:10.540Z,202.40
2023-03-17T11:16:10.605Z,203.56
2023-03-17T11:17:10.555Z,204.74
2023-03-17T11:18:11.386Z,206.83
2023-03-17T11:19:10.582Z,208.59
2023-03-17T11:21:10.613Z,208.73
2023-03-17T11:22:10.631Z,209.94
2023-03-17T11:23:10.657Z,211.44
2023-03-17T11:25:11.494Z,211.18
2023-03-17T11:26:10.689Z,211.79
2023-03-17T11:27:10.698Z,214.22
2023-03-17T11:28:10.712Z,213.11
2023-03-17T11:29:10.732Z,213.07
2023-03-17T11:31:10.760Z,212.90
2023-03-17T11:32:10.798Z,213.27
2023-03-17T11:33:10.878Z,213.74
2023-03-17T11:34:10.820Z,214.29
2023-03-17T11:35:10.854Z,215.10
2023-03-17T11:36:11.838Z,215.13
2023-03-17T11:37:10.822Z,214.42
2023-03-17T11:38:10.819Z,215.08
2023-03-17T11:39:10.818Z,216.04
2023-03-17T11:40:10.883Z,216.38
2023-03-17T11:41:10.808Z,217.49
2023-03-17T11:42:10.799Z,218.19
2023-03-17T11:43:10.792Z,220.09
2023-03-17T11:44:10.790Z,218.83
2023-03-17T11:45:10.790Z,218.64
2023-03-17T11:46:10.801Z,219.23
2023-03-17T11:47:10.760Z,219.60
2023-03-17T11:48:10.763Z,219.75
2023-03-17T11:49:10.758Z,222.27
2023-03-17T11:50:10.764Z,220.93
2023-03-17T11:51:10.765Z,220.84
2023-03-17T11:52:10.790Z,221.61
2023-03-17T11:53:11.477Z,222.49
2023-03-17T11:54:10.864Z,222.48
2023-03-17T12:16:11.713Z,225.85
2023-03-17T12:17:11.727Z,224.20
2023-03-17T12:18:11.842Z,223.60
2023-03-17T12:19:11.827Z,223.56
2023-03-17T12:20:11.879Z,223.75
2023-03-17T12:21:11.921Z,223.75
2023-03-17T12:22:11.966Z,223.34
2023-03-17T12:23:12.029Z,224.14
2023-03-17T12:24:12.080Z,226.11
2023-03-17T12:25:12.112Z,225.74
2023-03-17T12:26:12.165Z,225.11
2023-03-17T12:27:12.217Z,224.96
2023-03-17T12:28:12.277Z,225.40
2023-03-17T12:29:12.332Z,226.06
2023-03-17T12:30:12.373Z,226.77
2023-03-17T12:31:12.473Z,227.33
2023-03-17T12:32:12.476Z,227.00
2023-03-17T12:33:12.527Z,227.47
2023-03-17T12:34:12.588Z,227.38
2023-03-17T12:35:12.639Z,227.50
2023-03-17T12:36:12.698Z,227.86
2023-03-17T12:37:12.743Z,228.14
2023-03-17T12:38:12.816Z,227.69
2023-03-17T12:39:12.873Z,229.09
2023-03-17T12:40:12.968Z,228.92
2023-03-17T12:41:12.975Z,229.36
2023-03-17T12:42:13.080Z,228.62
2023-03-17T12:43:13.089Z,228.64
2023-03-17T12:44:13.194Z,229.61
2023-03-17T12:45:13.206Z,229.64
2023-03-17T12:46:14.021Z,229.98
2023-03-17T12:47:13.327Z,230.60
2023-03-17T12:48:13.393Z,230.33
2023-03-17T12:49:13.479Z,230.70
2023-03-17T12:50:13.530Z,230.52
2023-03-17T12:51:13.594Z,230.65
2023-03-17T12:52:13.659Z,229.53
2023-03-17T15:35:17.972Z,216.30
2023-03-17T15:36:33.277Z,216.23
2023-03-17T15:38:18.022Z,216.69
2023-03-17T15:39:18.006Z,217.55
2023-03-17T15:40:17.997Z,218.57
2023-03-17T15:41:17.990Z,220.38
2023-03-17T15:42:18.557Z,220.18
2023-03-17T15:43:17.984Z,220.43
2023-03-17T15:48:17.990Z,219.81
2023-03-17T15:49:18.030Z,219.75
2023-03-17T15:50:18.088Z,220.21
2023-03-17T15:51:18.139Z,220.38
2023-03-17T15:52:18.187Z,220.63
2023-03-17T15:53:18.252Z,221.58
2023-03-17T15:54:18.287Z,221.56
2023-03-17T15:55:18.345Z,222.05
2023-03-17T15:56:18.389Z,222.67
2023-03-17T15:57:18.434Z,222.70
2023-03-17T15:58:18.503Z,222.16
2023-03-17T15:59:18.548Z,222.99
2023-03-17T16:00:18.613Z,222.82
2023-03-17T16:01:18.745Z,222.99
2023-03-17T16:02:18.736Z,222.78
2023-03-17T16:03:18.784Z,222.42
2023-03-17T16:04:18.847Z,221.67
2023-03-17T16:05:18.914Z,221.44
2023-03-17T16:06:18.971Z,221.25
2023-03-17T16:07:19.023Z,220.48
2023-03-17T16:08:19.085Z,220.12
2023-03-17T16:09:19.138Z,218.05
2023-03-17T16:10:19.184Z,217.34
2023-03-17T16:11:19.247Z,217.67
2023-03-17T16:12:19.389Z,218.35
2023-03-17T16:13:19.359Z,218.43
2023-03-17T16:14:19.421Z,218.30
2023-03-17T16:15:23.384Z,218.81
2023-03-17T16:16:19.481Z,218.85
2023-03-17T16:17:19.461Z,219.07
2023-03-17T16:18:19.436Z,219.40
2023-03-17T16:19:19.430Z,220.30
2023-03-17T16:20:19.431Z,221.38
2023-03-17T16:21:19.425Z,221.04
2023-03-17T16:22:19.439Z,221.20
2023-03-17T16:23:19.415Z,220.29
2023-03-17T16:24:19.471Z,218.74
2023-03-17T16:25:19.402Z,217.86
2023-03-17T16:26:19.386Z,218.20
2023-03-17T16:27:19.388Z,218.94
2023-03-17T16:28:19.382Z,219.21
2023-03-17T16:29:19.371Z,219.72
2023-03-17T16:30:19.366Z,220.21
2023-03-17T16:31:19.421Z,220.29
2023-03-17T16:32:19.358Z,220.30
2023-03-17T16:33:19.352Z,220.43
2023-03-17T16:34:19.337Z,220.13
2023-03-17T16:35:19.347Z,219.98
2023-03-17T16:36:19.346Z,219.82
2023-03-17T16:37:19.414Z,219.52
2023-03-17T16:38:19.459Z,219.77
2023-03-17T16:39:19.522Z,220.29
2023-03-17T16:40:19.581Z,219.55
2023-03-17T16:41:19.651Z,219.63
2023-03-17T16:42:19.722Z,218.84
2023-03-17T16:43:25.232Z,218.62
2023-03-17T16:44:20.814Z,218.66
2023-03-17T16:45:19.750Z,218.70
2023-03-17T16:46:20.639Z,219.09
2023-03-17T16:47:19.747Z,219.23
2023-03-17T16:48:19.748Z,219.46
2023-03-17T16:49:19.729Z,217.55
2023-03-17T16:50:19.723Z,217.87
2023-03-17T16:51:19.731Z,217.51
2023-03-17T16:52:19.803Z,218.33
2023-03-17T16:53:19.742Z,218.87
2023-03-17T16:54:19.809Z,218.26
2023-03-17T16:55:19.841Z,218.72
2023-03-17T16:56:19.931Z,219.09
2023-03-17T16:57:19.977Z,219.12
2023-03-17T16:58:20.018Z,218.87
2023-03-17T16:59:20.628Z,219.32
2023-03-17T17:00:20.136Z,219.42
2023-03-17T17:01:20.255Z,219.75
2023-03-17T17:02:20.247Z,219.71
2023-03-17T17:03:20.323Z,219.82
2023-03-17T17:04:20.343Z,220.01
2023-03-17T17:05:20.398Z,218.72
2023-03-17T17:06:20.448Z,217.48
2023-03-17T17:07:20.472Z,219.22
2023-03-17T17:08:20.522Z,219.08
2023-03-17T17:09:20.613Z,216.88
2023-03-17T17:10:20.591Z,217.98
2023-03-17T17:11:20.636Z,217.96
2023-03-17T17:12:20.714Z,218.35
2023-03-17T17:13:20.872Z,219.03
2023-03-17T17:14:20.850Z,219.01
2023-03-17T17:15:20.859Z,219.57
2023-03-17T17:16:20.957Z,219.85
2023-03-17T17:17:20.952Z,219.46
2023-03-17T17:18:20.999Z,219.93
2023-03-17T17:19:21.038Z,218.96
2023-03-17T17:20:21.056Z,218.77
2023-03-17T17:21:21.067Z,219.33
2023-03-17T17:22:21.072Z,219.29
2023-03-17T17:23:21.076Z,219.46
2023-03-17T17:24:21.105Z,218.69
2023-03-17T17:25:22.094Z,219.58
2023-03-17T17:26:21.142Z,219.33
2023-03-17T17:27:21.142Z,219.39
2023-03-17T17:28:21.167Z,218.81
2023-03-17T17:29:21.182Z,219.08
2023-03-17T17:30:21.204Z,218.71
2023-03-17T17:31:21.249Z,219.39
2023-03-17T17:32:21.221Z,219.57
2023-03-17T17:33:21.616Z,219.38
2023-03-17T17:34:21.221Z,218.67
2023-03-17T17:35:21.240Z,218.46
2023-03-17T17:36:21.263Z,218.54
2023-03-17T17:37:21.298Z,218.98
2023-03-17T17:38:21.332Z,219.33
2023-03-17T17:39:21.362Z,219.16
2023-03-17T17:40:21.391Z,219.07
2023-03-17T17:41:21.426Z,218.68
2023-03-17T17:42:21.553Z,218.61
2023-03-17T17:43:21.544Z,219.29
2023-03-17T17:44:21.561Z,219.13
2023-03-17T17:45:21.600Z,219.54
2023-03-17T17:46:21.675Z,218.87
2023-03-17T17:47:21.642Z,219.07
2023-03-17T17:48:21.654Z,218.96
2023-03-17T17:49:21.670Z,218.99
2023-03-17T17:50:21.691Z,219.23
2023-03-17T17:51:21.733Z,218.91
2023-03-17T17:52:21.766Z,218.66
2023-03-17T17:53:21.791Z,218.43
2023-03-17T17:54:21.832Z,218.75
2023-03-17T17:55:21.871Z,217.98
2023-03-17T17:57:21.962Z,218.76
2023-03-17T17:58:21.968Z,218.28
2023-03-17T17:59:22.121Z,217.62
2023-03-17T18:00:22.024Z,218.20
2023-03-17T18:01:22.080Z,217.99
2023-03-17T22:56:28.580Z,196.11
2023-03-17T23:13:28.246Z,193.85
2023-03-17T23:14:27.999Z,192.96
2023-03-17T23:15:28.063Z,195.36
2023-03-17T23:16:28.105Z,195.62
2023-03-17T23:17:28.084Z,195.88
2023-03-17T23:18:28.105Z,196.34
2023-03-17T23:19:28.144Z,194.50
2023-03-17T23:20:28.161Z,195.48
2023-03-17T23:21:28.188Z,196.24
2023-03-17T23:22:28.214Z,196.77
2023-03-17T23:23:28.248Z,197.91
2023-03-17T23:24:28.382Z,195.65
2023-03-17T23:25:28.302Z,193.91
2023-03-17T23:26:28.404Z,194.32
2023-03-17T23:27:28.372Z,194.72
2023-03-17T23:28:28.388Z,193.79
2023-03-17T23:29:28.408Z,193.32
2023-03-17T23:31:28.466Z,195.93
2023-03-17T23:32:28.535Z,195.75
2023-03-17T23:33:28.530Z,196.27
2023-03-17T23:34:28.559Z,197.03
2023-03-17T23:35:28.667Z,196.96
2023-03-17T23:36:28.611Z,198.10
2023-03-17T23:37:28.689Z,197.55
2023-03-17T23:38:28.660Z,196.97
2023-03-17T23:39:28.686Z,197.94
2023-03-17T23:40:28.711Z,198.13
2023-03-17T23:41:28.742Z,194.86
2023-03-17T23:42:28.760Z,193.11
2023-03-17T23:43:28.791Z,194.77
2023-03-17T23:44:28.827Z,195.95
2023-03-17T23:45:28.841Z,196.98
2023-03-17T23:46:28.958Z,193.82
2023-03-17T23:47:28.917Z,192.71
2023-03-17T23:48:28.939Z,194.59
2023-03-17T23:49:28.975Z,194.92
2023-03-17T23:51:29.034Z,192.65
